Terminal Aerodrome Forecast
Issued by NWS

Home | Current Version | Previous Version | Text Only | Print | Product List | Glossary Off
Versions: 1 2 3 4 5 6 7 8 9 10 11 12

107
FTUS43 KGRB 161133
TAFCWA
TAF
KCWA 161133Z 1612/1712 24003KT P6SM SKC
     FM161600 25010G16KT P6SM SCT200
     FM162300 20005KT P6SM SKC
     FM170300 20007KT P6SM SKC WS010/23040KT=

USA.gov is the U.S. government's official web portal to all federal, state and local government web resources and services.